sensor_id;sensor_type;location;lat;lon;timestamp;temperature;humidity
36352;DHT22;22382;44.768;17.206;2023-03-01T00:01:40;2.60;99.90
36352;DHT22;22382;44.768;17.206;2023-03-01T00:04:07;2.60;99.90
36352;DHT22;22382;44.768;17.206;2023-03-01T00:06:34;2.60;99.90
36352;DHT22;22382;44.768;17.206;2023-03-01T00:09:01;2.60;99.90
36352;DHT22;22382;44.768;17.206;2023-03-01T00:11:29;2.60;99.90
36352;DHT22;22382;44.768;17.206;2023-03-01T00:13:57;2.60;99.90
36352;DHT22;22382;44.768;17.206;2023-03-01T00:16:32;2.50;99.90
36352;DHT22;22382;44.768;17.206;2023-03-01T00:19:00;2.40;99.90
36352;DHT22;22382;44.768;17.206;2023-03-01T00:21:27;2.40;99.90
36352;DHT22;22382;44.768;17.206;2023-03-01T00:23:55;2.50;99.90
36352;DHT22;22382;44.768;17.206;2023-03-01T00:26:22;2.40;99.90
36352;DHT22;22382;44.768;17.206;2023-03-01T00:28:50;2.40;99.90
36352;DHT22;22382;44.768;17.206;2023-03-01T00:31:19;2.50;99.90
36352;DHT22;22382;44.768;17.206;2023-03-01T00:33:46;2.40;99.90
36352;DHT22;22382;44.768;17.206;2023-03-01T00:36:14;2.60;99.90
36352;DHT22;22382;44.768;17.206;2023-03-01T00:38:42;2.50;99.90
36352;DHT22;22382;44.768;17.206;2023-03-01T00:41:11;2.50;99.90
36352;DHT22;22382;44.768;17.206;2023-03-01T00:43:38;2.60;99.90
36352;DHT22;22382;44.768;17.206;2023-03-01T00:46:09;2.50;99.90
36352;DHT22;22382;44.768;17.206;2023-03-01T00:48:36;2.50;99.90
36352;DHT22;22382;44.768;17.206;2023-03-01T00:51:04;2.50;99.90
36352;DHT22;22382;44.768;17.206;2023-03-01T00:53:31;2.60;99.90
36352;DHT22;22382;44.768;17.206;2023-03-01T00:55:58;2.60;99.90
36352;DHT22;22382;44.768;17.206;2023-03-01T00:58:26;2.60;99.90
36352;DHT22;22382;44.768;17.206;2023-03-01T01:00:53;2.60;99.90
36352;DHT22;22382;44.768;17.206;2023-03-01T01:03:20;2.60;99.90
36352;DHT22;22382;44.768;17.206;2023-03-01T01:05:47;2.50;99.90
36352;DHT22;22382;44.768;17.206;2023-03-01T01:08:14;2.40;99.90
36352;DHT22;22382;44.768;17.206;2023-03-01T01:10:43;2.30;99.90
36352;DHT22;22382;44.768;17.206;2023-03-01T01:13:10;2.40;99.90
36352;DHT22;22382;44.768;17.206;2023-03-01T01:15:37;2.50;99.90
36352;DHT22;22382;44.768;17.206;2023-03-01T01:18:04;2.50;99.90
36352;DHT22;22382;44.768;17.206;2023-03-01T01:20:31;2.40;99.90
36352;DHT22;22382;44.768;17.206;2023-03-01T01:22:58;2.40;99.90
36352;DHT22;22382;44.768;17.206;2023-03-01T01:25:25;2.30;99.90
36352;DHT22;22382;44.768;17.206;2023-03-01T01:27:52;2.30;99.90
36352;DHT22;22382;44.768;17.206;2023-03-01T01:30:18;2.40;99.90
36352;DHT22;22382;44.768;17.206;2023-03-01T01:32:45;2.40;99.90
36352;DHT22;22382;44.768;17.206;2023-03-01T01:35:12;2.40;99.90
36352;DHT22;22382;44.768;17.206;2023-03-01T01:37:39;2.30;99.90
36352;DHT22;22382;44.768;17.206;2023-03-01T01:40:06;2.40;99.90
36352;DHT22;22382;44.768;17.206;2023-03-01T01:42:33;2.40;99.90
36352;DHT22;22382;44.768;17.206;2023-03-01T01:48:10;2.40;99.90
36352;DHT22;22382;44.768;17.206;2023-03-01T01:50:39;2.50;99.90
36352;DHT22;22382;44.768;17.206;2023-03-01T01:53:09;2.60;99.90
36352;DHT22;22382;44.768;17.206;2023-03-01T01:55:37;2.70;99.90
36352;DHT22;22382;44.768;17.206;2023-03-01T01:58:06;2.80;99.90
36352;DHT22;22382;44.768;17.206;2023-03-01T02:00:35;2.70;99.90
36352;DHT22;22382;44.768;17.206;2023-03-01T02:03:04;2.60;99.90
36352;DHT22;22382;44.768;17.206;2023-03-01T02:05:36;2.70;99.90
36352;DHT22;22382;44.768;17.206;2023-03-01T02:08:05;2.50;99.90
36352;DHT22;22382;44.768;17.206;2023-03-01T02:10:33;2.40;99.90
36352;DHT22;22382;44.768;17.206;2023-03-01T02:13:01;2.40;99.90
36352;DHT22;22382;44.768;17.206;2023-03-01T02:15:35;2.40;99.90
36352;DHT22;22382;44.768;17.206;2023-03-01T02:18:03;2.30;99.90
36352;DHT22;22382;44.768;17.206;2023-03-01T02:20:35;2.30;99.90
36352;DHT22;22382;44.768;17.206;2023-03-01T02:23:04;2.40;99.90
36352;DHT22;22382;44.768;17.206;2023-03-01T02:25:34;2.30;99.90
36352;DHT22;22382;44.768;17.206;2023-03-01T02:30:32;2.40;99.90
36352;DHT22;22382;44.768;17.206;2023-03-01T02:33:00;2.40;99.90
36352;DHT22;22382;44.768;17.206;2023-03-01T02:35:30;2.30;99.90
36352;DHT22;22382;44.768;17.206;2023-03-01T02:37:59;2.40;99.90
36352;DHT22;22382;44.768;17.206;2023-03-01T02:40:28;2.30;99.90
36352;DHT22;22382;44.768;17.206;2023-03-01T02:42:56;2.30;99.90
36352;DHT22;22382;44.768;17.206;2023-03-01T02:45:24;2.30;99.90
36352;DHT22;22382;44.768;17.206;2023-03-01T02:47:54;2.20;99.90
36352;DHT22;22382;44.768;17.206;2023-03-01T02:55:25;2.40;99.90
36352;DHT22;22382;44.768;17.206;2023-03-01T02:57:52;2.50;99.90
36352;DHT22;22382;44.768;17.206;2023-03-01T03:00:24;2.70;99.90
36352;DHT22;22382;44.768;17.206;2023-03-01T03:02:53;2.60;99.90
36352;DHT22;22382;44.768;17.206;2023-03-01T03:05:21;2.50;99.90
36352;DHT22;22382;44.768;17.206;2023-03-01T03:07:49;2.40;99.90
36352;DHT22;22382;44.768;17.206;2023-03-01T03:10:18;2.40;99.90
36352;DHT22;22382;44.768;17.206;2023-03-01T03:12:49;2.40;99.90
36352;DHT22;22382;44.768;17.206;2023-03-01T03:15:17;2.30;99.90
36352;DHT22;22382;44.768;17.206;2023-03-01T03:17:44;2.30;99.90
36352;DHT22;22382;44.768;17.206;2023-03-01T03:20:13;2.20;99.90
36352;DHT22;22382;44.768;17.206;2023-03-01T03:22:46;2.20;99.90
36352;DHT22;22382;44.768;17.206;2023-03-01T03:25:13;2.20;99.90
36352;DHT22;22382;44.768;17.206;2023-03-01T03:27:41;2.20;99.90
36352;DHT22;22382;44.768;17.206;2023-03-01T03:30:10;2.10;99.90
36352;DHT22;22382;44.768;17.206;2023-03-01T03:32:39;2.20;99.90
36352;DHT22;22382;44.768;17.206;2023-03-01T03:35:07;2.20;99.90
36352;DHT22;22382;44.768;17.206;2023-03-01T03:37:39;2.20;99.90
36352;DHT22;22382;44.768;17.206;2023-03-01T03:40:39;2.30;99.90
36352;DHT22;22382;44.768;17.206;2023-03-01T03:43:07;2.40;99.90
36352;DHT22;22382;44.768;17.206;2023-03-01T03:45:35;2.40;99.90
36352;DHT22;22382;44.768;17.206;2023-03-01T03:48:03;2.30;99.90
36352;DHT22;22382;44.768;17.206;2023-03-01T03:50:31;2.30;99.90
36352;DHT22;22382;44.768;17.206;2023-03-01T03:53:02;2.30;99.90
36352;DHT22;22382;44.768;17.206;2023-03-01T03:55:29;2.30;99.90
36352;DHT22;22382;44.768;17.206;2023-03-01T03:57:57;2.30;99.90
36352;DHT22;22382;44.768;17.206;2023-03-01T04:00:28;2.30;99.90
36352;DHT22;22382;44.768;17.206;2023-03-01T04:02:56;2.30;99.90
36352;DHT22;22382;44.768;17.206;2023-03-01T04:05:23;2.30;99.90
36352;DHT22;22382;44.768;17.206;2023-03-01T04:07:50;2.30;99.90
36352;DHT22;22382;44.768;17.206;2023-03-01T04:10:31;2.30;99.90
36352;DHT22;22382;44.768;17.206;2023-03-01T04:12:58;2.30;99.90
36352;DHT22;22382;44.768;17.206;2023-03-01T04:15:26;2.30;99.90
36352;DHT22;22382;44.768;17.206;2023-03-01T04:17:53;2.30;99.90
36352;DHT22;22382;44.768;17.206;2023-03-01T04:20:22;2.30;99.90
36352;DHT22;22382;44.768;17.206;2023-03-01T04:22:56;2.40;99.90
36352;DHT22;22382;44.768;17.206;2023-03-01T04:25:26;2.40;99.90
36352;DHT22;22382;44.768;17.206;2023-03-01T04:27:53;2.40;99.90
36352;DHT22;22382;44.768;17.206;2023-03-01T04:30:20;2.40;99.90
36352;DHT22;22382;44.768;17.206;2023-03-01T04:32:52;2.50;99.90
36352;DHT22;22382;44.768;17.206;2023-03-01T04:35:18;2.40;99.90
36352;DHT22;22382;44.768;17.206;2023-03-01T04:37:46;2.40;99.90
36352;DHT22;22382;44.768;17.206;2023-03-01T04:40:13;2.40;99.90
36352;DHT22;22382;44.768;17.206;2023-03-01T04:42:43;2.40;99.90
36352;DHT22;22382;44.768;17.206;2023-03-01T04:45:10;2.30;99.90
36352;DHT22;22382;44.768;17.206;2023-03-01T04:47:40;2.40;99.90
36352;DHT22;22382;44.768;17.206;2023-03-01T04:50:08;2.40;99.90
36352;DHT22;22382;44.768;17.206;2023-03-01T04:52:35;2.40;99.90
36352;DHT22;22382;44.768;17.206;2023-03-01T04:55:03;2.40;99.90
36352;DHT22;22382;44.768;17.206;2023-03-01T04:57:30;2.40;99.90
36352;DHT22;22382;44.768;17.206;2023-03-01T04:59:57;2.40;99.90
36352;DHT22;22382;44.768;17.206;2023-03-01T05:02:24;2.30;99.90
36352;DHT22;22382;44.768;17.206;2023-03-01T05:04:51;2.40;99.90
36352;DHT22;22382;44.768;17.206;2023-03-01T05:07:18;2.30;99.90
36352;DHT22;22382;44.768;17.206;2023-03-01T05:09:48;2.30;99.90
36352;DHT22;22382;44.768;17.206;2023-03-01T05:12:15;2.40;99.90
36352;DHT22;22382;44.768;17.206;2023-03-01T05:14:42;2.40;99.90
36352;DHT22;22382;44.768;17.206;2023-03-01T05:17:09;2.40;99.90
36352;DHT22;22382;44.768;17.206;2023-03-01T05:19:36;2.30;99.90
36352;DHT22;22382;44.768;17.206;2023-03-01T05:22:03;2.40;99.90
36352;DHT22;22382;44.768;17.206;2023-03-01T05:24:31;2.40;99.90
36352;DHT22;22382;44.768;17.206;2023-03-01T05:27:00;2.30;99.90
36352;DHT22;22382;44.768;17.206;2023-03-01T05:29:27;2.30;99.90
36352;DHT22;22382;44.768;17.206;2023-03-01T05:31:56;2.20;99.90
36352;DHT22;22382;44.768;17.206;2023-03-01T05:34:25;2.20;99.90
36352;DHT22;22382;44.768;17.206;2023-03-01T05:36:52;2.30;99.90
36352;DHT22;22382;44.768;17.206;2023-03-01T05:39:20;2.30;99.90
36352;DHT22;22382;44.768;17.206;2023-03-01T05:41:48;2.30;99.90
36352;DHT22;22382;44.768;17.206;2023-03-01T05:44:18;2.40;99.90
36352;DHT22;22382;44.768;17.206;2023-03-01T05:46:45;2.30;99.90
36352;DHT22;22382;44.768;17.206;2023-03-01T05:49:13;2.40;99.90
36352;DHT22;22382;44.768;17.206;2023-03-01T05:51:40;2.40;99.90
36352;DHT22;22382;44.768;17.206;2023-03-01T05:54:08;2.40;99.90
36352;DHT22;22382;44.768;17.206;2023-03-01T05:56:36;2.40;99.90
36352;DHT22;22382;44.768;17.206;2023-03-01T05:59:04;2.40;99.90
36352;DHT22;22382;44.768;17.206;2023-03-01T06:01:32;2.40;99.90
36352;DHT22;22382;44.768;17.206;2023-03-01T06:04:00;2.40;99.90
36352;DHT22;22382;44.768;17.206;2023-03-01T06:06:27;2.40;99.90
36352;DHT22;22382;44.768;17.206;2023-03-01T06:08:55;2.40;99.90
36352;DHT22;22382;44.768;17.206;2023-03-01T06:11:22;2.40;99.90
36352;DHT22;22382;44.768;17.206;2023-03-01T06:13:48;2.40;99.90
36352;DHT22;22382;44.768;17.206;2023-03-01T06:16:15;2.50;99.90
36352;DHT22;22382;44.768;17.206;2023-03-01T06:18:42;2.50;99.90
36352;DHT22;22382;44.768;17.206;2023-03-01T06:21:09;2.40;99.90
36352;DHT22;22382;44.768;17.206;2023-03-01T06:23:36;2.40;99.90
36352;DHT22;22382;44.768;17.206;2023-03-01T06:26:07;2.40;99.90
36352;DHT22;22382;44.768;17.206;2023-03-01T06:28:34;2.40;99.90
36352;DHT22;22382;44.768;17.206;2023-03-01T06:31:01;2.40;99.90
36352;DHT22;22382;44.768;17.206;2023-03-01T06:33:28;2.30;99.90
36352;DHT22;22382;44.768;17.206;2023-03-01T06:35:55;2.30;99.90
36352;DHT22;22382;44.768;17.206;2023-03-01T06:38:23;2.30;99.90
36352;DHT22;22382;44.768;17.206;2023-03-01T06:40:54;2.40;99.90
36352;DHT22;22382;44.768;17.206;2023-03-01T06:43:24;2.40;99.90
36352;DHT22;22382;44.768;17.206;2023-03-01T06:45:51;2.40;99.90
36352;DHT22;22382;44.768;17.206;2023-03-01T06:48:18;2.40;99.90
36352;DHT22;22382;44.768;17.206;2023-03-01T06:50:45;2.40;99.90
36352;DHT22;22382;44.768;17.206;2023-03-01T06:53:12;2.50;99.90
36352;DHT22;22382;44.768;17.206;2023-03-01T06:55:39;2.50;99.90
36352;DHT22;22382;44.768;17.206;2023-03-01T06:58:06;2.40;99.90
36352;DHT22;22382;44.768;17.206;2023-03-01T07:00:33;2.40;99.90
36352;DHT22;22382;44.768;17.206;2023-03-01T07:03:00;2.50;99.90
36352;DHT22;22382;44.768;17.206;2023-03-01T07:05:28;2.50;99.90
36352;DHT22;22382;44.768;17.206;2023-03-01T07:07:56;2.50;99.90
36352;DHT22;22382;44.768;17.206;2023-03-01T07:10:23;2.50;99.90
36352;DHT22;22382;44.768;17.206;2023-03-01T07:12:50;2.60;99.90
36352;DHT22;22382;44.768;17.206;2023-03-01T07:15:17;2.60;99.90
36352;DHT22;22382;44.768;17.206;2023-03-01T07:17:44;2.60;99.90
36352;DHT22;22382;44.768;17.206;2023-03-01T07:20:14;2.50;99.90
36352;DHT22;22382;44.768;17.206;2023-03-01T07:22:41;2.50;99.90
36352;DHT22;22382;44.768;17.206;2023-03-01T07:25:09;2.40;99.90
36352;DHT22;22382;44.768;17.206;2023-03-01T07:27:36;2.40;99.90
36352;DHT22;22382;44.768;17.206;2023-03-01T07:30:04;2.40;99.90
36352;DHT22;22382;44.768;17.206;2023-03-01T07:32:31;2.30;99.90
36352;DHT22;22382;44.768;17.206;2023-03-01T07:34:58;2.30;99.90
36352;DHT22;22382;44.768;17.206;2023-03-01T07:37:24;2.40;99.90
36352;DHT22;22382;44.768;17.206;2023-03-01T07:39:51;2.40;99.90
36352;DHT22;22382;44.768;17.206;2023-03-01T07:42:18;2.50;99.90
36352;DHT22;22382;44.768;17.206;2023-03-01T07:44:45;2.50;99.90
36352;DHT22;22382;44.768;17.206;2023-03-01T07:47:12;2.50;99.90
36352;DHT22;22382;44.768;17.206;2023-03-01T07:49:39;2.60;99.90
36352;DHT22;22382;44.768;17.206;2023-03-01T07:52:06;2.70;99.90
36352;DHT22;22382;44.768;17.206;2023-03-01T07:54:33;2.70;99.90
36352;DHT22;22382;44.768;17.206;2023-03-01T07:57:00;2.70;99.90
36352;DHT22;22382;44.768;17.206;2023-03-01T07:59:27;2.70;99.90
36352;DHT22;22382;44.768;17.206;2023-03-01T08:01:56;2.70;99.90
36352;DHT22;22382;44.768;17.206;2023-03-01T08:04:23;2.80;99.90
36352;DHT22;22382;44.768;17.206;2023-03-01T08:06:51;2.80;99.90
36352;DHT22;22382;44.768;17.206;2023-03-01T08:09:18;2.80;99.90
36352;DHT22;22382;44.768;17.206;2023-03-01T08:11:45;2.90;99.90
36352;DHT22;22382;44.768;17.206;2023-03-01T08:14:12;2.90;99.90
36352;DHT22;22382;44.768;17.206;2023-03-01T08:16:39;2.90;99.90
36352;DHT22;22382;44.768;17.206;2023-03-01T08:19:07;2.90;99.90
36352;DHT22;22382;44.768;17.206;2023-03-01T08:21:34;2.90;99.90
36352;DHT22;22382;44.768;17.206;2023-03-01T08:24:02;2.90;99.90
36352;DHT22;22382;44.768;17.206;2023-03-01T08:26:29;2.90;99.90
36352;DHT22;22382;44.768;17.206;2023-03-01T08:28:56;2.90;99.90
36352;DHT22;22382;44.768;17.206;2023-03-01T08:31:25;3.00;99.90
36352;DHT22;22382;44.768;17.206;2023-03-01T08:33:53;3.00;99.90
36352;DHT22;22382;44.768;17.206;2023-03-01T08:36:24;2.90;99.90
36352;DHT22;22382;44.768;17.206;2023-03-01T08:38:52;3.00;99.90
36352;DHT22;22382;44.768;17.206;2023-03-01T08:41:19;3.10;99.90
36352;DHT22;22382;44.768;17.206;2023-03-01T08:43:46;3.10;99.90
36352;DHT22;22382;44.768;17.206;2023-03-01T08:46:13;3.10;99.90
36352;DHT22;22382;44.768;17.206;2023-03-01T08:48:40;3.10;99.90
36352;DHT22;22382;44.768;17.206;2023-03-01T08:51:10;3.20;99.90
36352;DHT22;22382;44.768;17.206;2023-03-01T08:53:38;3.20;99.90
36352;DHT22;22382;44.768;17.206;2023-03-01T08:56:05;3.10;99.90
36352;DHT22;22382;44.768;17.206;2023-03-01T08:58:33;3.10;99.90
36352;DHT22;22382;44.768;17.206;2023-03-01T09:01:00;3.10;99.90
36352;DHT22;22382;44.768;17.206;2023-03-01T09:03:27;2.90;99.90
36352;DHT22;22382;44.768;17.206;2023-03-01T09:05:54;2.90;99.90
36352;DHT22;22382;44.768;17.206;2023-03-01T09:08:26;3.00;99.90
36352;DHT22;22382;44.768;17.206;2023-03-01T09:10:53;3.10;99.90
36352;DHT22;22382;44.768;17.206;2023-03-01T09:13:20;3.10;99.90
36352;DHT22;22382;44.768;17.206;2023-03-01T09:15:47;3.10;99.90
36352;DHT22;22382;44.768;17.206;2023-03-01T09:18:14;3.10;99.90
36352;DHT22;22382;44.768;17.206;2023-03-01T09:20:41;3.20;99.90
36352;DHT22;22382;44.768;17.206;2023-03-01T09:23:08;3.20;99.90
36352;DHT22;22382;44.768;17.206;2023-03-01T09:25:35;3.20;99.90
36352;DHT22;22382;44.768;17.206;2023-03-01T09:28:02;3.20;99.90
36352;DHT22;22382;44.768;17.206;2023-03-01T09:30:30;3.00;99.90
36352;DHT22;22382;44.768;17.206;2023-03-01T09:32:57;3.00;99.90
36352;DHT22;22382;44.768;17.206;2023-03-01T09:35:24;3.00;99.90
36352;DHT22;22382;44.768;17.206;2023-03-01T09:37:51;3.00;99.90
36352;DHT22;22382;44.768;17.206;2023-03-01T09:40:21;3.00;99.90
36352;DHT22;22382;44.768;17.206;2023-03-01T09:42:53;2.90;99.90
36352;DHT22;22382;44.768;17.206;2023-03-01T09:45:27;2.90;99.90
36352;DHT22;22382;44.768;17.206;2023-03-01T09:47:56;2.90;99.90
36352;DHT22;22382;44.768;17.206;2023-03-01T09:50:23;3.00;99.90
36352;DHT22;22382;44.768;17.206;2023-03-01T09:53:03;3.00;99.90
36352;DHT22;22382;44.768;17.206;2023-03-01T09:58:00;3.00;99.90
36352;DHT22;22382;44.768;17.206;2023-03-01T10:00:37;3.10;99.90
36352;DHT22;22382;44.768;17.206;2023-03-01T10:05:38;3.10;99.90
36352;DHT22;22382;44.768;17.206;2023-03-01T10:10:37;3.10;99.90
36352;DHT22;22382;44.768;17.206;2023-03-01T10:15:45;3.10;99.90
36352;DHT22;22382;44.768;17.206;2023-03-01T10:18:16;3.20;99.90
36352;DHT22;22382;44.768;17.206;2023-03-01T10:23:11;3.20;99.90
36352;DHT22;22382;44.768;17.206;2023-03-01T10:28:17;3.30;99.90
36352;DHT22;22382;44.768;17.206;2023-03-01T10:30:46;3.30;99.90
36352;DHT22;22382;44.768;17.206;2023-03-01T10:33:16;3.30;99.90
36352;DHT22;22382;44.768;17.206;2023-03-01T10:35:44;3.40;99.90
36352;DHT22;22382;44.768;17.206;2023-03-01T10:38:12;3.50;99.90
36352;DHT22;22382;44.768;17.206;2023-03-01T10:40:59;3.40;99.90
36352;DHT22;22382;44.768;17.206;2023-03-01T10:43:26;3.50;99.90
36352;DHT22;22382;44.768;17.206;2023-03-01T10:45:54;3.70;99.90
36352;DHT22;22382;44.768;17.206;2023-03-01T10:48:22;3.40;99.90
36352;DHT22;22382;44.768;17.206;2023-03-01T10:53:34;3.30;99.90
36352;DHT22;22382;44.768;17.206;2023-03-01T10:56:06;3.30;99.90
36352;DHT22;22382;44.768;17.206;2023-03-01T10:58:34;3.20;99.90
36352;DHT22;22382;44.768;17.206;2023-03-01T11:03:43;3.40;99.90
36352;DHT22;22382;44.768;17.206;2023-03-01T11:08:42;3.70;99.90
36352;DHT22;22382;44.768;17.206;2023-03-01T11:13:48;3.90;99.90
36352;DHT22;22382;44.768;17.206;2023-03-01T11:16:16;4.00;99.90
36352;DHT22;22382;44.768;17.206;2023-03-01T11:18:59;4.00;99.90
36352;DHT22;22382;44.768;17.206;2023-03-01T11:21:26;4.00;99.90
36352;DHT22;22382;44.768;17.206;2023-03-01T11:23:55;3.90;99.90
36352;DHT22;22382;44.768;17.206;2023-03-01T11:26:23;4.00;99.90
36352;DHT22;22382;44.768;17.206;2023-03-01T11:28:51;3.90;99.90
36352;DHT22;22382;44.768;17.206;2023-03-01T11:31:20;4.00;99.90
36352;DHT22;22382;44.768;17.206;2023-03-01T11:33:54;3.80;99.90
36352;DHT22;22382;44.768;17.206;2023-03-01T11:42:00;3.90;99.90
36352;DHT22;22382;44.768;17.206;2023-03-01T11:44:43;3.90;99.90
36352;DHT22;22382;44.768;17.206;2023-03-01T12:02:58;3.70;99.90
36352;DHT22;22382;44.768;17.206;2023-03-01T12:08:21;3.90;99.90
36352;DHT22;22382;44.768;17.206;2023-03-01T12:24:27;4.00;99.90
36352;DHT22;22382;44.768;17.206;2023-03-01T12:29:49;4.00;99.90
36352;DHT22;22382;44.768;17.206;2023-03-01T12:32:36;4.00;99.90
36352;DHT22;22382;44.768;17.206;2023-03-01T12:38:17;4.00;99.90
36352;DHT22;22382;44.768;17.206;2023-03-01T12:43:19;4.10;99.90
36352;DHT22;22382;44.768;17.206;2023-03-01T12:48:55;4.20;99.90
36352;DHT22;22382;44.768;17.206;2023-03-01T12:51:26;4.10;99.90
36352;DHT22;22382;44.768;17.206;2023-03-01T12:53:55;4.20;99.90
36352;DHT22;22382;44.768;17.206;2023-03-01T12:56:26;4.10;99.90
36352;DHT22;22382;44.768;17.206;2023-03-01T13:01:35;4.20;99.90
36352;DHT22;22382;44.768;17.206;2023-03-01T13:09:18;4.10;99.90
36352;DHT22;22382;44.768;17.206;2023-03-01T13:11:46;4.10;99.90
36352;DHT22;22382;44.768;17.206;2023-03-01T13:16:52;4.10;99.90
36352;DHT22;22382;44.768;17.206;2023-03-01T13:19:20;4.10;99.90
36352;DHT22;22382;44.768;17.206;2023-03-01T13:21:48;4.10;99.90
36352;DHT22;22382;44.768;17.206;2023-03-01T13:24:50;4.00;99.90
36352;DHT22;22382;44.768;17.206;2023-03-01T13:27:11;4.00;99.90
36352;DHT22;22382;44.768;17.206;2023-03-01T13:37:36;4.00;99.90
36352;DHT22;22382;44.768;17.206;2023-03-01T13:40:07;4.00;99.90
36352;DHT22;22382;44.768;17.206;2023-03-01T13:42:52;3.90;99.90
36352;DHT22;22382;44.768;17.206;2023-03-01T13:45:41;3.80;99.90
36352;DHT22;22382;44.768;17.206;2023-03-01T13:50:48;3.80;99.90
36352;DHT22;22382;44.768;17.206;2023-03-01T13:53:19;3.80;99.90
36352;DHT22;22382;44.768;17.206;2023-03-01T13:55:48;3.80;99.90
36352;DHT22;22382;44.768;17.206;2023-03-01T13:58:21;3.70;99.90
36352;DHT22;22382;44.768;17.206;2023-03-01T14:00:55;3.70;99.90
36352;DHT22;22382;44.768;17.206;2023-03-01T14:03:22;3.70;99.90
36352;DHT22;22382;44.768;17.206;2023-03-01T14:06:08;3.70;99.90
36352;DHT22;22382;44.768;17.206;2023-03-01T14:08:46;3.70;99.90
36352;DHT22;22382;44.768;17.206;2023-03-01T14:11:40;3.70;99.90
36352;DHT22;22382;44.768;17.206;2023-03-01T14:14:48;3.60;99.90
36352;DHT22;22382;44.768;17.206;2023-03-01T14:19:48;3.60;99.90
36352;DHT22;22382;44.768;17.206;2023-03-01T14:22:22;3.50;99.90
36352;DHT22;22382;44.768;17.206;2023-03-01T14:24:57;3.60;99.90
36352;DHT22;22382;44.768;17.206;2023-03-01T14:27:30;3.60;99.90
36352;DHT22;22382;44.768;17.206;2023-03-01T14:30:03;3.60;99.90
36352;DHT22;22382;44.768;17.206;2023-03-01T14:32:31;3.50;99.90
36352;DHT22;22382;44.768;17.206;2023-03-01T14:34:59;3.60;99.90
36352;DHT22;22382;44.768;17.206;2023-03-01T14:37:28;3.50;99.90
36352;DHT22;22382;44.768;17.206;2023-03-01T14:39:56;3.60;99.90
36352;DHT22;22382;44.768;17.206;2023-03-01T14:42:24;3.50;99.90
36352;DHT22;22382;44.768;17.206;2023-03-01T14:44:53;3.50;99.90
36352;DHT22;22382;44.768;17.206;2023-03-01T14:47:30;3.50;99.90
36352;DHT22;22382;44.768;17.206;2023-03-01T14:50:03;3.50;99.90
36352;DHT22;22382;44.768;17.206;2023-03-01T14:52:32;3.50;99.90
36352;DHT22;22382;44.768;17.206;2023-03-01T14:55:02;3.60;99.90
36352;DHT22;22382;44.768;17.206;2023-03-01T14:57:30;3.50;99.90
36352;DHT22;22382;44.768;17.206;2023-03-01T14:59:58;3.50;99.90
36352;DHT22;22382;44.768;17.206;2023-03-01T15:02:27;3.50;99.90
36352;DHT22;22382;44.768;17.206;2023-03-01T15:04:56;3.50;99.90
36352;DHT22;22382;44.768;17.206;2023-03-01T15:07:25;3.60;99.90
36352;DHT22;22382;44.768;17.206;2023-03-01T15:09:53;3.50;99.90
36352;DHT22;22382;44.768;17.206;2023-03-01T15:14:56;3.50;99.90
36352;DHT22;22382;44.768;17.206;2023-03-01T15:17:30;3.50;99.90
36352;DHT22;22382;44.768;17.206;2023-03-01T15:19:58;3.50;99.90
36352;DHT22;22382;44.768;17.206;2023-03-01T15:22:26;3.60;99.90
36352;DHT22;22382;44.768;17.206;2023-03-01T15:24:53;3.60;99.90
36352;DHT22;22382;44.768;17.206;2023-03-01T15:27:21;3.60;99.90
36352;DHT22;22382;44.768;17.206;2023-03-01T15:29:50;3.50;99.90
36352;DHT22;22382;44.768;17.206;2023-03-01T15:34:47;3.50;99.90
36352;DHT22;22382;44.768;17.206;2023-03-01T15:40:00;3.40;99.90
36352;DHT22;22382;44.768;17.206;2023-03-01T15:47:52;3.30;99.90
36352;DHT22;22382;44.768;17.206;2023-03-01T15:50:26;3.30;99.90
36352;DHT22;22382;44.768;17.206;2023-03-01T15:52:54;3.20;99.90
36352;DHT22;22382;44.768;17.206;2023-03-01T15:55:23;3.20;99.90
36352;DHT22;22382;44.768;17.206;2023-03-01T15:57:57;3.20;99.90
36352;DHT22;22382;44.768;17.206;2023-03-01T16:00:27;3.20;99.90
36352;DHT22;22382;44.768;17.206;2023-03-01T16:02:55;3.10;99.90
36352;DHT22;22382;44.768;17.206;2023-03-01T16:05:23;3.10;99.90
36352;DHT22;22382;44.768;17.206;2023-03-01T16:07:51;3.10;99.90
36352;DHT22;22382;44.768;17.206;2023-03-01T16:10:18;3.00;99.90
36352;DHT22;22382;44.768;17.206;2023-03-01T16:12:45;3.00;99.90
36352;DHT22;22382;44.768;17.206;2023-03-01T16:15:17;3.00;99.90
36352;DHT22;22382;44.768;17.206;2023-03-01T16:17:46;2.90;99.90
36352;DHT22;22382;44.768;17.206;2023-03-01T16:20:13;2.90;99.90
36352;DHT22;22382;44.768;17.206;2023-03-01T16:22:53;2.90;99.90
36352;DHT22;22382;44.768;17.206;2023-03-01T16:25:20;2.80;99.90
36352;DHT22;22382;44.768;17.206;2023-03-01T16:27:48;2.80;99.90
36352;DHT22;22382;44.768;17.206;2023-03-01T16:30:16;2.80;99.90
36352;DHT22;22382;44.768;17.206;2023-03-01T16:32:45;2.80;99.90
36352;DHT22;22382;44.768;17.206;2023-03-01T16:35:16;2.70;99.90
36352;DHT22;22382;44.768;17.206;2023-03-01T16:37:44;2.70;99.90
36352;DHT22;22382;44.768;17.206;2023-03-01T16:40:25;2.70;99.90
36352;DHT22;22382;44.768;17.206;2023-03-01T16:42:53;2.60;99.90
36352;DHT22;22382;44.768;17.206;2023-03-01T16:45:22;2.60;99.90
36352;DHT22;22382;44.768;17.206;2023-03-01T16:47:51;2.60;99.90
36352;DHT22;22382;44.768;17.206;2023-03-01T16:50:21;2.50;99.90
36352;DHT22;22382;44.768;17.206;2023-03-01T16:52:49;2.40;99.90
36352;DHT22;22382;44.768;17.206;2023-03-01T16:55:16;2.20;99.90
36352;DHT22;22382;44.768;17.206;2023-03-01T16:57:44;2.30;99.90
36352;DHT22;22382;44.768;17.206;2023-03-01T17:00:11;2.30;99.90
36352;DHT22;22382;44.768;17.206;2023-03-01T17:02:43;2.20;99.90
36352;DHT22;22382;44.768;17.206;2023-03-01T17:05:11;2.30;99.90
36352;DHT22;22382;44.768;17.206;2023-03-01T17:07:38;2.20;99.90
36352;DHT22;22382;44.768;17.206;2023-03-01T17:10:07;2.20;99.90
36352;DHT22;22382;44.768;17.206;2023-03-01T17:12:34;2.20;99.90
36352;DHT22;22382;44.768;17.206;2023-03-01T17:15:02;2.20;99.90
36352;DHT22;22382;44.768;17.206;2023-03-01T17:17:30;2.10;99.90
36352;DHT22;22382;44.768;17.206;2023-03-01T17:20:00;2.10;99.90
36352;DHT22;22382;44.768;17.206;2023-03-01T17:22:30;2.20;99.90
36352;DHT22;22382;44.768;17.206;2023-03-01T17:24:57;2.20;99.90
36352;DHT22;22382;44.768;17.206;2023-03-01T17:27:24;2.30;99.90
36352;DHT22;22382;44.768;17.206;2023-03-01T17:29:51;2.30;99.90
36352;DHT22;22382;44.768;17.206;2023-03-01T17:32:21;2.30;99.90
36352;DHT22;22382;44.768;17.206;2023-03-01T17:34:48;2.30;99.90
36352;DHT22;22382;44.768;17.206;2023-03-01T17:37:15;2.30;99.90
36352;DHT22;22382;44.768;17.206;2023-03-01T17:39:42;2.30;99.90
36352;DHT22;22382;44.768;17.206;2023-03-01T17:42:09;2.40;99.90
36352;DHT22;22382;44.768;17.206;2023-03-01T17:44:36;2.40;99.90